createdAt,value
2022-09-20T00:01:42.700Z,100281.44
2022-09-20T00:04:11.407Z,100289.06
2022-09-20T00:06:41.488Z,100297.91
2022-09-20T00:09:10.041Z,100287.00
2022-09-20T00:11:38.417Z,100294.44
2022-09-20T00:14:14.538Z,100300.19
2022-09-20T00:16:43.032Z,100297.31
2022-09-20T00:19:27.876Z,100292.78
2022-09-20T00:21:55.884Z,100307.00
2022-09-20T00:24:25.682Z,100304.09
2022-09-20T00:26:54.079Z,100307.19
2022-09-20T00:29:26.569Z,100300.81
2022-09-20T00:31:56.130Z,100309.22
2022-09-20T00:34:41.794Z,100301.81
2022-09-20T00:37:09.901Z,100302.03
2022-09-20T00:39:37.955Z,100307.19
2022-09-20T00:42:06.562Z,100308.81
2022-09-20T00:44:55.702Z,100313.16
2022-09-20T00:47:33.343Z,100314.81
2022-09-20T00:50:08.737Z,100315.63
2022-09-20T00:52:37.988Z,100322.63
2022-09-20T00:55:24.292Z,100316.25
2022-09-20T00:57:52.418Z,100314.81
2022-09-20T01:00:23.289Z,100315.84
2022-09-20T01:02:56.698Z,100323.03
2022-09-20T01:05:26.485Z,100322.22
2022-09-20T01:07:56.099Z,100318.72
2022-09-20T01:10:24.281Z,100320.56
2022-09-20T01:12:54.335Z,100325.09
2022-09-20T01:15:26.027Z,100326.53
2022-09-20T01:17:58.134Z,100322.81
2022-09-20T01:20:29.670Z,100328.19
2022-09-20T01:23:13.884Z,100335.00
2022-09-20T01:26:08.702Z,100335.81
2022-09-20T01:28:39.425Z,100337.06
2022-09-20T01:31:12.510Z,100333.75
2022-09-20T01:33:45.436Z,100335.59
2022-09-20T01:36:19.549Z,100331.47
2022-09-20T01:38:57.013Z,100343.00
2022-09-20T01:41:29.916Z,100340.75
2022-09-20T01:44:08.361Z,100347.16
2022-09-20T01:46:38.108Z,100342.63
2022-09-20T01:49:21.366Z,100340.16
2022-09-20T01:52:30.665Z,100346.91
2022-09-20T01:55:42.476Z,100353.09
2022-09-20T01:58:35.353Z,100348.56
2022-09-20T02:01:42.421Z,100357.22
2022-09-20T02:04:43.996Z,100354.53
2022-09-20T02:07:33.908Z,100353.94
2022-09-20T02:10:40.247Z,100358.47
2022-09-20T02:13:17.247Z,100365.66
2022-09-20T02:16:29.300Z,100371.25
2022-09-20T02:19:48.252Z,100367.50
2022-09-20T02:22:31.387Z,100365.06
2022-09-20T02:25:10.561Z,100372.47
2022-09-20T02:27:49.349Z,100370.63
2022-09-20T02:30:31.040Z,100357.22
2022-09-20T02:33:32.757Z,100369.16
2022-09-20T02:36:16.870Z,100372.06
2022-09-20T02:38:58.740Z,100377.19
2022-09-20T02:41:59.605Z,100382.78
2022-09-20T02:44:48.516Z,100388.09
2022-09-20T02:47:27.541Z,100379.66
2022-09-20T02:50:14.278Z,100387.88
2022-09-20T02:52:52.721Z,100376.31
2022-09-20T02:55:42.019Z,100384.56
2022-09-20T02:58:24.372Z,100387.44
2022-09-20T03:00:56.919Z,100385.53
2022-09-20T03:03:36.320Z,100401.16
2022-09-20T03:06:12.656Z,100406.47
2022-09-20T03:08:52.988Z,100400.63
2022-09-20T03:11:30.758Z,100410.69
2022-09-20T03:14:15.267Z,100401.38
2022-09-20T03:16:52.806Z,100412.47
2022-09-20T03:19:37.053Z,100406.03
2022-09-20T03:22:21.038Z,100423.47
2022-09-20T03:25:10.486Z,100439.28
2022-09-20T03:27:45.850Z,100424.63
2022-09-20T03:30:30.696Z,100435.72
2022-09-20T03:33:06.045Z,100438.75
2022-09-20T03:35:50.853Z,100441.41
2022-09-20T03:38:39.844Z,100444.91
2022-09-20T03:41:31.476Z,100450.03
2022-09-20T03:44:17.002Z,100442.84
2022-09-20T03:46:57.291Z,100447.78
2022-09-20T03:50:01.075Z,100452.31
2022-09-20T03:52:59.266Z,100457.72
2022-09-20T03:55:53.506Z,100459.59
2022-09-20T03:58:36.433Z,100472.56
2022-09-20T04:01:39.367Z,100478.81
2022-09-20T04:04:17.359Z,100477.56
2022-09-20T04:06:58.395Z,100486.03
2022-09-20T04:09:40.584Z,100484.19
2022-09-20T04:12:18.620Z,100488.50
2022-09-20T04:14:54.624Z,100496.34
2022-09-20T04:17:40.364Z,100498.19
2022-09-20T04:20:21.036Z,100499.44
2022-09-20T04:22:52.538Z,100497.38
2022-09-20T04:25:25.575Z,100495.31
2022-09-20T04:27:58.354Z,100491.56
2022-09-20T04:30:30.624Z,100498.38
2022-09-20T04:33:05.009Z,100507.66
2022-09-20T04:36:02.253Z,100502.88
2022-09-20T04:38:33.341Z,100514.16
2022-09-20T04:41:21.660Z,100517.91
2022-09-20T04:44:28.935Z,100517.25
2022-09-20T04:47:30.359Z,100529.41
2022-09-20T04:50:28.532Z,100526.56
2022-09-20T04:53:24.554Z,100539.31
2022-09-20T04:56:02.016Z,100536.66
2022-09-20T04:58:38.871Z,100538.09
2022-09-20T05:01:49.753Z,100538.75
2022-09-20T05:05:02.561Z,100553.19
2022-09-20T05:08:07.499Z,100546.81
2022-09-20T05:11:14.506Z,100550.94
2022-09-20T05:13:58.693Z,100558.75
2022-09-20T05:16:55.554Z,100560.38
2022-09-20T05:19:32.672Z,100566.16
2022-09-20T05:22:33.460Z,100575.00
2022-09-20T05:25:34.403Z,100580.56
2022-09-20T05:28:08.116Z,100584.66
2022-09-20T05:30:43.608Z,100581.63
2022-09-20T05:33:21.424Z,100575.00
2022-09-20T05:36:02.313Z,100590.13
2022-09-20T05:38:41.730Z,100598.59
2022-09-20T05:41:19.095Z,100602.50
2022-09-20T05:43:56.466Z,100605.59
2022-09-20T05:46:37.078Z,100606.81
2022-09-20T05:49:18.110Z,100619.75
2022-09-20T05:52:11.719Z,100615.00
2022-09-20T05:55:16.235Z,100614.19
2022-09-20T05:58:01.821Z,100625.50
2022-09-20T06:00:38.248Z,100617.31
2022-09-20T06:03:17.591Z,100622.66
2022-09-20T06:06:01.308Z,100621.19
2022-09-20T06:08:57.972Z,100629.88
2022-09-20T06:11:56.399Z,100627.47
2022-09-20T06:14:38.914Z,100626.00
2022-09-20T06:17:19.007Z,100634.00
2022-09-20T06:20:05.568Z,100642.47
2022-09-20T06:22:38.814Z,100641.66
2022-09-20T06:25:17.876Z,100638.00
2022-09-20T06:27:54.200Z,100640.63
2022-09-20T06:30:28.963Z,100641.69
2022-09-20T06:32:59.692Z,100652.59
2022-09-20T06:35:58.193Z,100651.16
2022-09-20T06:39:04.554Z,100656.72
2022-09-20T06:41:46.645Z,100666.66
2022-09-20T06:44:15.388Z,100667.53
2022-09-20T06:46:45.035Z,100665.91
2022-09-20T06:49:13.202Z,100669.66
2022-09-20T06:51:55.925Z,100679.38
2022-09-20T06:54:24.457Z,100667.03
2022-09-20T06:56:52.947Z,100675.91
2022-09-20T06:59:21.420Z,100668.31
2022-09-20T07:01:54.799Z,100679.28
2022-09-20T07:04:23.471Z,100677.44
2022-09-20T07:06:51.483Z,100691.66
2022-09-20T07:09:19.548Z,100692.31
2022-09-20T07:11:52.522Z,100692.75
2022-09-20T07:14:20.625Z,100702.25
2022-09-20T07:16:48.802Z,100699.81
2022-09-20T07:19:18.332Z,100705.00
2022-09-20T07:21:46.613Z,100705.66
2022-09-20T07:24:15.189Z,100706.09
2022-09-20T07:26:56.528Z,100706.97
2022-09-20T07:29:24.760Z,100710.53
2022-09-20T07:31:53.416Z,100705.56
2022-09-20T07:34:24.643Z,100716.72
2022-09-20T07:36:52.694Z,100712.81
2022-09-20T07:39:20.839Z,100707.06
2022-09-20T07:41:52.371Z,100721.56
2022-09-20T07:44:24.956Z,100717.06
2022-09-20T07:46:53.955Z,100725.72
2022-09-20T07:49:24.394Z,100725.53
2022-09-20T07:51:52.497Z,100723.06
2022-09-20T07:54:21.174Z,100725.75
2022-09-20T07:56:49.887Z,100725.53
2022-09-20T07:59:18.521Z,100733.00
2022-09-20T08:01:47.672Z,100726.41
2022-09-20T08:04:15.730Z,100728.66
2022-09-20T08:06:46.515Z,100731.34
2022-09-20T08:09:15.319Z,100737.75
2022-09-20T08:11:44.737Z,100738.56
2022-09-20T08:14:15.304Z,100732.78
2022-09-20T08:16:45.200Z,100738.38
2022-09-20T08:19:17.615Z,100733.63
2022-09-20T08:21:47.171Z,100736.50
2022-09-20T08:24:16.474Z,100735.22
2022-09-20T08:26:45.416Z,100737.94
2022-09-20T08:29:15.230Z,100753.44
2022-09-20T08:31:44.181Z,100740.38
2022-09-20T08:34:15.216Z,100745.56
2022-09-20T08:36:47.052Z,100747.41
2022-09-20T08:42:14.345Z,100760.44
2022-09-20T08:44:57.812Z,100759.84
2022-09-20T08:47:30.230Z,100756.53
2022-09-20T08:49:59.465Z,100753.44
2022-09-20T08:52:39.136Z,100757.31
2022-09-20T08:55:17.161Z,100761.06
2022-09-20T08:57:49.674Z,100769.28
2022-09-20T09:00:20.549Z,100765.09
2022-09-20T09:03:03.002Z,100763.88
2022-09-20T09:05:35.099Z,100776.22
2022-09-20T09:08:08.251Z,100764.69
2022-09-20T09:10:42.836Z,100762.63
2022-09-20T09:13:21.565Z,100778.91
2022-09-20T09:15:57.341Z,100776.44
2022-09-20T09:18:34.948Z,100779.09
2022-09-20T09:21:08.469Z,100777.88
2022-09-20T09:23:46.404Z,100784.50
2022-09-20T09:26:21.339Z,100782.22
2022-09-20T09:29:09.636Z,100785.75
2022-09-20T09:31:39.725Z,100780.56
2022-09-20T09:34:24.739Z,100784.88
2022-09-20T09:36:54.439Z,100785.06
2022-09-20T09:39:30.529Z,100783.97
2022-09-20T09:42:22.990Z,100787.91
2022-09-20T09:44:51.069Z,100780.88
2022-09-20T09:47:28.732Z,100793.03
2022-09-20T09:50:06.102Z,100791.16
2022-09-20T09:52:36.950Z,100801.16
2022-09-20T09:55:06.223Z,100804.25
2022-09-20T09:58:01.263Z,100803.59
2022-09-20T10:00:33.399Z,100807.75
2022-09-20T10:03:31.011Z,100792.06
2022-09-20T10:06:09.877Z,100807.34
2022-09-20T10:08:47.053Z,100808.13
2022-09-20T10:11:28.716Z,100803.19
2022-09-20T10:14:08.713Z,100819.28
2022-09-20T10:16:53.927Z,100811.81
2022-09-20T10:19:40.639Z,100812.00
2022-09-20T10:22:19.940Z,100816.13
2022-09-20T10:24:55.413Z,100822.41
2022-09-20T10:27:35.063Z,100816.16
2022-09-20T10:30:13.799Z,100827.94
2022-09-20T10:32:59.595Z,100815.94
2022-09-20T10:35:37.395Z,100826.28
2022-09-20T10:38:14.818Z,100829.44
2022-09-20T10:41:10.549Z,100828.22
2022-09-20T10:44:05.349Z,100827.59
2022-09-20T10:46:47.365Z,100841.66
2022-09-20T10:49:35.009Z,100843.53
2022-09-20T10:52:22.817Z,100829.88
2022-09-20T10:55:09.676Z,100843.72
2022-09-20T10:57:56.648Z,100837.94
2022-09-20T11:00:27.588Z,100845.44
2022-09-20T11:03:14.635Z,100843.63
2022-09-20T11:05:56.571Z,100842.38
2022-09-20T11:08:29.809Z,100849.41
2022-09-20T11:11:04.232Z,100845.44
2022-09-20T11:13:39.917Z,100843.53
2022-09-20T11:16:14.860Z,100850.50
2022-09-20T11:18:53.564Z,100836.44
2022-09-20T11:21:28.032Z,100846.25
2022-09-20T11:24:03.659Z,100847.56
2022-09-20T11:26:39.464Z,100847.97
2022-09-20T11:29:17.171Z,100847.97
2022-09-20T11:31:50.822Z,100854.03
2022-09-20T11:34:28.438Z,100859.13
2022-09-20T11:36:59.042Z,100850.19
2022-09-20T11:39:36.654Z,100859.53
2022-09-20T11:42:06.590Z,100861.94
2022-09-20T11:44:40.403Z,100853.63
2022-09-20T11:47:31.172Z,100860.03
2022-09-20T11:50:40.984Z,100873.94
2022-09-20T11:53:24.157Z,100860.47
2022-09-20T11:55:59.105Z,100856.81
2022-09-20T11:58:28.008Z,100858.97
2022-09-20T12:00:59.393Z,100861.38
2022-09-20T12:03:34.227Z,100862.09
2022-09-20T12:06:06.966Z,100870.34
2022-09-20T12:08:40.377Z,100875.47
2022-09-20T12:11:11.529Z,100862.84
2022-09-20T12:13:42.469Z,100875.31
2022-09-20T12:16:16.001Z,100871.06
2022-09-20T12:19:03.524Z,100877.34
2022-09-20T12:21:53.031Z,100883.19
2022-09-20T12:24:26.924Z,100874.22
2022-09-20T12:26:58.004Z,100885.19
2022-09-20T12:30:04.151Z,100876.50
2022-09-20T12:32:52.075Z,100881.66
2022-09-20T12:35:57.125Z,100882.50
2022-09-20T12:38:54.247Z,100877.03
2022-09-20T12:41:28.649Z,100877.75
2022-09-20T12:44:02.036Z,100890.19
2022-09-20T12:46:44.752Z,100898.41
2022-09-20T12:49:59.671Z,100899.66
2022-09-20T12:52:53.842Z,100889.47
2022-09-20T12:55:55.497Z,100884.97
2022-09-20T12:58:28.672Z,100899.91
2022-09-20T13:01:31.488Z,100905.97
2022-09-20T13:04:37.892Z,100906.50
2022-09-20T13:07:43.540Z,100908.06
2022-09-20T13:10:37.653Z,100910.56
2022-09-20T13:13:18.064Z,100908.75
2022-09-20T13:15:53.643Z,100912.34
2022-09-20T13:18:25.284Z,100918.13
2022-09-20T13:20:56.025Z,100919.56
2022-09-20T13:23:28.642Z,100920.09
2022-09-20T13:25:59.008Z,100917.38
2022-09-20T13:28:36.432Z,100930.72
2022-09-20T13:31:33.776Z,100926.81
2022-09-20T13:34:24.056Z,100925.66
2022-09-20T13:36:59.532Z,100931.91
2022-09-20T13:39:35.160Z,100929.19
2022-09-20T13:42:08.557Z,100919.22
2022-09-20T13:44:38.522Z,100941.69
2022-09-20T13:47:23.618Z,100943.84
2022-09-20T13:49:52.019Z,100941.25
2022-09-20T13:52:31.741Z,100942.06
2022-09-20T13:55:01.513Z,100945.59
2022-09-20T13:57:31.889Z,100938.22
2022-09-20T14:00:03.645Z,100944.44
2022-09-20T14:02:36.140Z,100943.63
2022-09-20T14:05:08.173Z,100942.06
2022-09-20T14:07:37.357Z,100948.88
2022-09-20T14:10:06.401Z,100947.78
2022-09-20T14:12:35.958Z,100941.25
2022-09-20T14:15:11.630Z,100948.53
2022-09-20T14:17:40.193Z,100946.03
2022-09-20T14:20:15.385Z,100952.28
2022-09-20T14:22:45.980Z,100947.56
2022-09-20T14:25:39.422Z,100964.28
2022-09-20T14:28:18.059Z,100961.28
2022-09-20T14:30:49.566Z,100954.41
2022-09-20T14:33:28.213Z,100958.09
2022-09-20T14:35:56.885Z,100961.84
2022-09-20T14:38:28.708Z,100968.19
2022-09-20T14:40:57.005Z,100969.56
2022-09-20T14:43:31.454Z,100960.03
2022-09-20T14:46:05.211Z,100971.22
2022-09-20T14:48:36.402Z,100980.00
2022-09-20T14:51:23.631Z,100974.34
2022-09-20T14:54:37.839Z,100974.84
2022-09-20T14:57:07.117Z,100988.16
2022-09-20T14:59:40.024Z,100989.38
2022-09-20T15:02:15.141Z,100980.75
2022-09-20T15:04:54.882Z,101003.16
2022-09-20T15:07:23.878Z,100994.91
2022-09-20T15:09:52.480Z,100998.81
2022-09-20T15:12:36.053Z,100986.16
2022-09-20T15:15:04.441Z,100995.78
2022-09-20T15:17:41.581Z,100993.44
2022-09-20T15:20:18.696Z,100993.84
2022-09-20T15:22:51.372Z,100983.34
2022-09-20T15:25:44.126Z,100991.66
2022-09-20T15:28:17.420Z,100991.88
2022-09-20T15:30:45.797Z,101002.78
2022-09-20T15:33:16.051Z,100995.78
2022-09-20T15:35:46.018Z,100997.50
2022-09-20T15:38:15.295Z,101007.94
2022-09-20T15:40:47.768Z,101010.31
2022-09-20T15:43:18.457Z,101007.28
2022-09-20T15:45:51.013Z,101007.72
2022-09-20T15:48:30.386Z,101003.41
2022-09-20T15:51:03.383Z,101008.19
2022-09-20T15:53:34.424Z,101012.41
2022-09-20T15:56:04.291Z,101016.19
2022-09-20T15:58:36.083Z,101016.16
2022-09-20T16:01:08.271Z,101024.03
2022-09-20T16:03:38.944Z,101025.09
2022-09-20T16:06:10.444Z,101020.91
2022-09-20T16:08:41.415Z,101016.63
2022-09-20T16:11:12.083Z,101005.69
2022-09-20T16:13:40.646Z,101012.00
2022-09-20T16:16:13.089Z,101013.94
2022-09-20T16:19:00.660Z,101018.00
2022-09-20T16:21:29.659Z,101022.53
2022-09-20T16:23:59.172Z,101024.03
2022-09-20T16:26:38.245Z,101030.91
2022-09-20T16:29:08.097Z,101023.41
2022-09-20T16:31:40.151Z,101041.16
2022-09-20T16:34:14.639Z,101033.53
2022-09-20T16:36:43.462Z,101033.69
2022-09-20T16:39:15.376Z,101039.47
2022-09-20T16:41:44.641Z,101041.56
2022-09-20T16:44:13.185Z,101037.53
2022-09-20T16:46:41.415Z,101057.09
2022-09-20T16:49:13.166Z,101049.66
2022-09-20T16:51:48.008Z,101047.22
2022-09-20T16:54:20.376Z,101052.78
2022-09-20T16:56:50.001Z,101051.53
2022-09-20T16:59:22.054Z,101058.94
2022-09-20T17:01:51.020Z,101056.44
2022-09-20T17:04:21.155Z,101056.53
2022-09-20T17:06:55.715Z,101050.06
2022-09-20T17:09:23.864Z,101056.19
2022-09-20T17:11:54.464Z,101063.34
2022-09-20T17:14:24.637Z,101058.88
2022-09-20T17:16:54.800Z,101057.75
2022-09-20T17:19:24.324Z,101068.19
2022-09-20T17:22:00.988Z,101074.09
2022-09-20T17:24:30.548Z,101076.50
2022-09-20T17:27:01.799Z,101075.13
2022-09-20T17:29:29.864Z,101075.06
2022-09-20T17:31:59.872Z,101079.91
2022-09-20T17:34:31.648Z,101085.19
2022-09-20T17:37:03.609Z,101083.84
2022-09-20T17:39:33.109Z,101087.50
2022-09-20T17:42:01.442Z,101098.31
2022-09-20T17:44:30.463Z,101096.22
2022-09-20T17:46:59.867Z,101091.78
2022-09-20T17:49:31.123Z,101102.41
2022-09-20T17:51:59.360Z,101105.66
2022-09-20T17:54:28.485Z,101101.50
2022-09-20T17:56:57.098Z,101109.66
2022-09-20T17:59:26.074Z,101105.03
2022-09-20T18:01:55.251Z,101122.66
2022-09-20T18:04:24.672Z,101123.75
2022-09-20T18:06:55.937Z,101121.38
2022-09-20T18:09:27.319Z,101124.41
2022-09-20T18:11:59.691Z,101114.50
2022-09-20T18:14:37.036Z,101113.78
2022-09-20T18:17:07.244Z,101126.41
2022-09-20T18:19:35.928Z,101136.78
2022-09-20T18:22:06.711Z,101131.88
2022-09-20T18:24:36.630Z,101126.59
2022-09-20T18:27:05.058Z,101122.13
2022-09-20T18:29:36.893Z,101129.41
2022-09-20T18:32:06.552Z,101124.75
2022-09-20T18:34:37.453Z,101137.84
2022-09-20T18:37:18.361Z,101128.38
2022-09-20T18:39:46.578Z,101145.06
2022-09-20T18:42:15.331Z,101139.13
2022-09-20T18:44:43.726Z,101152.81
2022-09-20T18:47:13.626Z,101154.72
2022-09-20T18:49:42.222Z,101158.44
2022-09-20T18:52:14.394Z,101158.28
2022-09-20T18:54:42.719Z,101158.34
2022-09-20T18:57:12.692Z,101168.88
2022-09-20T18:59:54.004Z,101164.41
2022-09-20T19:02:38.411Z,101178.59
2022-09-20T19:05:24.329Z,101176.31
2022-09-20T19:08:06.603Z,101179.97
2022-09-20T19:10:42.775Z,101178.00
2022-09-20T19:13:24.155Z,101182.19
2022-09-20T19:16:10.035Z,101185.53
2022-09-20T19:19:03.343Z,101189.53
2022-09-20T19:21:41.759Z,101189.38
2022-09-20T19:24:23.771Z,101195.88
2022-09-20T19:26:52.586Z,101194.38
2022-09-20T19:29:22.794Z,101194.06
2022-09-20T19:31:53.797Z,101198.06
2022-09-20T19:34:26.815Z,101201.19
2022-09-20T19:37:09.847Z,101203.53
2022-09-20T19:39:59.500Z,101209.03
2022-09-20T19:42:42.718Z,101218.53
2022-09-20T19:45:26.085Z,101221.03
2022-09-20T19:48:06.433Z,101224.19
2022-09-20T19:50:41.279Z,101218.69
2022-09-20T19:53:12.444Z,101225.19
2022-09-20T19:55:48.806Z,101229.31
2022-09-20T19:58:19.801Z,101229.81
2022-09-20T20:00:54.489Z,101238.97
2022-09-20T20:03:26.987Z,101233.59
2022-09-20T20:06:07.665Z,101237.94
2022-09-20T20:08:43.185Z,101241.13
2022-09-20T20:11:19.541Z,101245.25
2022-09-20T20:14:10.523Z,101247.06
2022-09-20T20:16:51.935Z,101252.88
2022-09-20T20:19:48.301Z,101260.00
2022-09-20T20:22:34.347Z,101259.16
2022-09-20T20:25:04.300Z,101266.47
2022-09-20T20:27:33.858Z,101263.97
2022-09-20T20:30:02.412Z,101267.09
2022-09-20T20:32:30.713Z,101276.25
2022-09-20T20:34:58.945Z,101280.91
2022-09-20T20:37:29.270Z,101289.19
2022-09-20T20:39:59.639Z,101279.00
2022-09-20T20:42:29.060Z,101280.81
2022-09-20T20:44:59.175Z,101275.00
2022-09-20T20:47:27.200Z,101274.50
2022-09-20T20:49:55.225Z,101283.47
2022-09-20T20:52:24.387Z,101280.06
2022-09-20T20:54:52.439Z,101277.72
2022-09-20T20:57:21.907Z,101282.38
2022-09-20T20:59:50.141Z,101289.81
2022-09-20T21:02:22.228Z,101283.63
2022-09-20T21:04:53.763Z,101295.94
2022-09-20T21:07:26.827Z,101289.38
2022-09-20T21:09:55.477Z,101302.00
2022-09-20T21:12:27.001Z,101295.34
2022-09-20T21:15:01.318Z,101301.97
2022-09-20T21:17:35.902Z,101295.91
2022-09-20T21:20:06.765Z,101288.38
2022-09-20T21:22:34.816Z,101293.16
2022-09-20T21:25:07.630Z,101300.28
2022-09-20T21:27:38.308Z,101299.78
2022-09-20T21:30:09.565Z,101300.94
2022-09-20T21:32:45.266Z,101304.03
2022-09-20T21:35:14.106Z,101301.00
2022-09-20T21:37:42.124Z,101304.94
2022-09-20T21:40:25.823Z,101317.69
2022-09-20T21:42:53.839Z,101313.84
2022-09-20T21:45:27.396Z,101318.31
2022-09-20T21:47:56.795Z,101317.78
2022-09-20T21:50:26.039Z,101310.41
2022-09-20T21:52:54.424Z,101324.00
2022-09-20T21:55:24.443Z,101315.63
2022-09-20T21:57:53.247Z,101316.91
2022-09-20T22:00:22.401Z,101314.88
2022-09-20T22:02:53.286Z,101309.56
2022-09-20T22:05:23.029Z,101315.84
2022-09-20T22:07:51.571Z,101314.19
2022-09-20T22:10:19.547Z,101312.06
2022-09-20T22:12:48.332Z,101316.72
2022-09-20T22:15:19.742Z,101320.50
2022-09-20T22:17:47.757Z,101313.66
2022-09-20T22:20:15.879Z,101316.47
2022-09-20T22:22:45.119Z,101318.56
2022-09-20T22:25:12.989Z,101316.91
2022-09-20T22:27:40.832Z,101324.19
2022-09-20T22:30:12.319Z,101329.81
2022-09-20T22:32:41.147Z,101327.16
2022-09-20T22:35:09.839Z,101339.88
2022-09-20T22:37:37.891Z,101330.22
2022-09-20T22:40:07.995Z,101333.03
2022-09-20T22:42:35.898Z,101337.78
2022-09-20T22:45:03.770Z,101331.94
2022-09-20T22:47:31.587Z,101332.66
2022-09-20T22:50:05.476Z,101330.16
2022-09-20T22:52:33.680Z,101341.59
2022-09-20T22:55:03.671Z,101337.28
2022-09-20T22:57:33.120Z,101333.97
2022-09-20T23:00:04.548Z,101322.09
2022-09-20T23:02:34.062Z,101333.84
2022-09-20T23:05:01.974Z,101343.09
2022-09-20T23:07:30.348Z,101333.19
2022-09-20T23:09:58.217Z,101347.41
2022-09-20T23:12:26.228Z,101342.38
2022-09-20T23:14:55.507Z,101343.53
2022-09-20T23:17:23.366Z,101347.31
2022-09-20T23:19:53.073Z,101342.56
2022-09-20T23:22:21.105Z,101349.81
2022-09-20T23:24:48.970Z,101350.78
2022-09-20T23:27:17.653Z,101349.16
2022-09-20T23:29:46.279Z,101350.28
2022-09-20T23:32:15.533Z,101341.75
2022-09-20T23:34:43.399Z,101351.66
2022-09-20T23:37:13.558Z,101356.56
2022-09-20T23:39:45.576Z,101348.19
2022-09-20T23:42:13.520Z,101350.16
2022-09-20T23:45:02.619Z,101344.16
2022-09-20T23:47:31.891Z,101344.72
2022-09-20T23:49:59.837Z,101350.03
2022-09-20T23:52:27.726Z,101350.03
2022-09-20T23:54:55.889Z,101347.66
2022-09-20T23:57:23.698Z,101339.97
